createdAt,value
2023-01-20T00:01:06.184Z,30.20
2023-01-20T00:03:33.035Z,24.60
2023-01-20T00:05:59.870Z,28.10
2023-01-20T00:08:26.665Z,24.10
2023-01-20T00:10:53.476Z,30.70
2023-01-20T00:13:20.204Z,30.10
2023-01-20T00:15:47.082Z,19.90
2023-01-20T00:18:14.611Z,28.70
2023-01-20T00:20:41.517Z,29.50
2023-01-20T00:23:08.386Z,34.40
2023-01-20T00:25:38.352Z,29.60
2023-01-20T00:28:05.326Z,26.60
2023-01-20T00:30:32.190Z,29.10
2023-01-20T00:32:58.994Z,24.10
2023-01-20T00:35:25.805Z,27.70
2023-01-20T00:37:52.918Z,34.80
2023-01-20T00:40:19.730Z,32.20
2023-01-20T00:42:46.479Z,26.10
2023-01-20T00:45:13.498Z,23.70
2023-01-20T00:47:40.560Z,31.50
2023-01-20T00:50:07.659Z,28.00
2023-01-20T00:52:34.446Z,29.40
2023-01-20T00:55:01.210Z,28.70
2023-01-20T00:57:28.044Z,29.00
2023-01-20T00:59:54.848Z,28.30
2023-01-20T01:02:21.782Z,28.80
2023-01-20T01:04:51.791Z,24.60
2023-01-20T01:07:18.737Z,25.10
2023-01-20T01:09:45.567Z,32.80
2023-01-20T01:12:12.369Z,27.20
2023-01-20T01:14:39.155Z,29.90
2023-01-20T01:17:06.016Z,27.20
2023-01-20T01:19:32.844Z,30.60
2023-01-20T01:21:59.598Z,26.70
2023-01-20T01:24:26.348Z,25.50
2023-01-20T01:26:54.672Z,25.50
2023-01-20T01:29:21.386Z,25.00
2023-01-20T01:31:48.270Z,26.00
2023-01-20T01:34:15.518Z,21.70
2023-01-20T01:36:42.343Z,27.90
2023-01-20T01:39:09.180Z,24.10
2023-01-20T01:41:36.066Z,28.60
2023-01-20T01:44:08.783Z,30.30
2023-01-20T01:46:35.906Z,27.10
2023-01-20T01:49:25.273Z,24.90
2023-01-20T01:51:59.574Z,22.30
2023-01-20T01:54:29.966Z,30.30
2023-01-20T01:56:56.745Z,23.90
2023-01-20T01:59:23.497Z,25.60
2023-01-20T02:01:51.988Z,27.40
2023-01-20T02:04:23.773Z,22.60
2023-01-20T02:06:55.995Z,26.00
2023-01-20T02:09:24.103Z,28.20
2023-01-20T02:11:53.115Z,19.30
2023-01-20T02:14:24.265Z,24.70
2023-01-20T02:20:34.687Z,21.90
2023-01-20T02:23:04.614Z,24.00
2023-01-20T02:26:07.018Z,23.30
2023-01-20T02:28:52.919Z,23.20
2023-01-20T02:31:47.831Z,29.50
2023-01-20T02:34:27.191Z,21.50
2023-01-20T02:36:59.852Z,23.60
2023-01-20T02:39:44.470Z,26.80
2023-01-20T02:42:16.291Z,20.60
2023-01-20T02:44:46.771Z,22.30
2023-01-20T02:47:14.878Z,18.60
2023-01-20T02:49:45.078Z,21.40
2023-01-20T02:52:17.029Z,24.80
2023-01-20T02:54:47.971Z,28.00
2023-01-20T02:57:17.216Z,23.10
2023-01-20T02:59:45.846Z,27.80
2023-01-20T03:02:18.426Z,28.40
2023-01-20T03:04:58.050Z,28.40
2023-01-20T03:07:25.901Z,24.60
2023-01-20T03:09:54.222Z,21.30
2023-01-20T03:12:27.255Z,25.30
2023-01-20T03:14:53.987Z,22.90
2023-01-20T03:17:20.878Z,30.80
2023-01-20T03:19:47.714Z,24.50
2023-01-20T03:22:14.838Z,31.30
2023-01-20T03:24:41.643Z,23.20
2023-01-20T03:27:08.727Z,27.50
2023-01-20T03:29:35.567Z,17.50
2023-01-20T03:32:02.683Z,22.80
2023-01-20T03:34:31.847Z,22.60
2023-01-20T03:36:58.787Z,18.70
2023-01-20T03:39:25.633Z,23.00
2023-01-20T03:42:02.226Z,21.90
2023-01-20T03:45:00.109Z,19.70
2023-01-20T03:47:40.190Z,23.90
2023-01-20T03:50:10.055Z,28.30
2023-01-20T03:52:48.015Z,19.80
2023-01-20T03:55:32.404Z,27.70
2023-01-20T03:58:08.673Z,23.80
2023-01-20T04:00:37.499Z,21.10
2023-01-20T04:03:09.829Z,22.90
2023-01-20T04:05:37.597Z,24.20
2023-01-20T04:08:07.233Z,25.40
2023-01-20T04:10:34.079Z,25.70
2023-01-20T04:13:00.895Z,19.10
2023-01-20T04:15:30.352Z,20.00
2023-01-20T04:17:57.327Z,20.70
2023-01-20T04:20:24.713Z,22.50
2023-01-20T04:22:53.398Z,20.70
2023-01-20T04:25:30.988Z,22.10
2023-01-20T04:27:57.807Z,21.50
2023-01-20T04:30:24.816Z,24.30
2023-01-20T04:32:51.877Z,20.30
2023-01-20T04:35:19.383Z,26.70
2023-01-20T04:37:46.178Z,19.00
2023-01-20T04:40:13.330Z,20.40
2023-01-20T04:42:40.113Z,20.50
2023-01-20T04:45:07.300Z,20.10
2023-01-20T04:47:34.222Z,21.90
2023-01-20T04:50:01.177Z,19.40
2023-01-20T04:52:27.908Z,21.10
2023-01-20T04:54:54.686Z,20.10
2023-01-20T04:57:21.576Z,22.50
2023-01-20T04:59:48.446Z,24.50
2023-01-20T05:02:15.418Z,23.70
2023-01-20T05:04:42.507Z,25.50
2023-01-20T05:07:09.263Z,26.60
2023-01-20T05:09:36.163Z,21.50
2023-01-20T05:12:03.356Z,18.50
2023-01-20T05:14:30.146Z,22.10
2023-01-20T05:16:56.936Z,21.90
2023-01-20T05:19:23.766Z,22.60
2023-01-20T05:21:50.550Z,25.10
2023-01-20T05:24:17.347Z,19.60
2023-01-20T05:26:44.149Z,18.60
2023-01-20T05:29:10.930Z,20.50
2023-01-20T05:31:43.485Z,23.40
2023-01-20T05:34:11.100Z,24.40
2023-01-20T05:36:37.868Z,22.70
2023-01-20T05:39:04.652Z,27.70
2023-01-20T05:41:31.423Z,19.40
2023-01-20T05:43:58.246Z,22.30
2023-01-20T05:46:25.118Z,22.80
2023-01-20T05:48:52.019Z,25.10
2023-01-20T05:51:18.871Z,19.10
2023-01-20T05:53:45.705Z,19.60
2023-01-20T05:56:16.252Z,22.00
2023-01-20T05:58:43.185Z,23.20
2023-01-20T06:01:12.275Z,21.20
2023-01-20T06:03:39.268Z,21.00
2023-01-20T06:06:08.005Z,22.90
2023-01-20T06:08:35.448Z,22.40
2023-01-20T06:11:02.302Z,21.70
2023-01-20T06:13:29.150Z,19.80
2023-01-20T06:15:56.434Z,25.60
2023-01-20T06:18:23.861Z,18.40
2023-01-20T06:20:50.809Z,21.80
2023-01-20T06:23:17.751Z,25.50
2023-01-20T06:25:44.699Z,19.70
2023-01-20T06:28:11.537Z,23.20
2023-01-20T06:30:38.732Z,18.10
2023-01-20T06:33:10.740Z,23.60
2023-01-20T06:35:38.171Z,19.60
2023-01-20T06:38:05.173Z,22.30
2023-01-20T06:40:31.998Z,20.30
2023-01-20T06:42:59.148Z,24.20
2023-01-20T06:45:28.700Z,26.30
2023-01-20T06:47:56.005Z,20.90
2023-01-20T06:50:23.273Z,24.00
2023-01-20T06:52:50.287Z,24.00
2023-01-20T06:55:17.567Z,18.60
2023-01-20T06:57:44.718Z,19.60
2023-01-20T07:00:12.907Z,24.00
2023-01-20T07:02:39.951Z,24.80
2023-01-20T07:05:08.729Z,22.80
2023-01-20T07:07:35.573Z,20.40
2023-01-20T07:10:03.436Z,28.30
2023-01-20T07:12:30.269Z,23.90
2023-01-20T07:14:57.212Z,23.10
2023-01-20T07:17:23.971Z,19.10
2023-01-20T07:19:50.804Z,25.20
2023-01-20T07:22:19.946Z,22.20
2023-01-20T07:24:46.833Z,23.20
2023-01-20T07:27:15.160Z,19.40
2023-01-20T07:29:42.007Z,22.90
2023-01-20T07:32:08.904Z,21.00
2023-01-20T07:34:35.824Z,23.50
2023-01-20T07:37:02.692Z,21.60
2023-01-20T07:39:29.492Z,24.30
2023-01-20T07:41:56.522Z,22.80
2023-01-20T07:44:23.345Z,21.60
2023-01-20T07:46:51.773Z,21.10
2023-01-20T07:49:18.622Z,25.20
2023-01-20T07:51:45.434Z,19.80
2023-01-20T07:54:12.318Z,24.00
2023-01-20T07:56:39.171Z,20.10
2023-01-20T07:59:06.012Z,21.00
2023-01-20T08:01:33.305Z,24.20
2023-01-20T08:04:00.790Z,23.90
2023-01-20T08:06:28.081Z,18.20
2023-01-20T08:08:57.712Z,22.60
2023-01-20T08:11:25.739Z,32.40
2023-01-20T08:13:53.019Z,21.60
2023-01-20T08:16:20.127Z,25.20
2023-01-20T08:18:47.105Z,24.80
2023-01-20T08:21:19.262Z,19.20
2023-01-20T08:23:46.088Z,23.00
2023-01-20T08:26:13.167Z,19.10
2023-01-20T08:28:40.034Z,25.80
2023-01-20T08:31:08.841Z,21.40
2023-01-20T08:33:36.152Z,21.70
2023-01-20T08:36:14.154Z,18.90
2023-01-20T08:38:41.334Z,22.90
2023-01-20T08:41:09.388Z,19.20
2023-01-20T08:43:36.256Z,20.70
2023-01-20T08:46:07.137Z,27.10
2023-01-20T08:48:34.716Z,23.20
2023-01-20T08:51:07.837Z,26.00
2023-01-20T08:53:34.752Z,23.50
2023-01-20T08:56:02.347Z,20.40
2023-01-20T08:58:29.557Z,19.60
2023-01-20T09:00:56.471Z,19.90
2023-01-20T09:03:23.837Z,23.50
2023-01-20T09:05:50.946Z,20.30
2023-01-20T09:08:17.777Z,22.70
2023-01-20T09:10:45.520Z,15.60
2023-01-20T09:13:12.878Z,22.40
2023-01-20T09:15:39.855Z,21.20
2023-01-20T09:18:06.983Z,18.30
2023-01-20T09:20:34.424Z,21.20
2023-01-20T09:23:02.959Z,21.10
2023-01-20T09:25:30.022Z,20.70
2023-01-20T09:28:00.663Z,21.80
2023-01-20T09:30:27.984Z,22.70
2023-01-20T09:32:56.521Z,27.50
2023-01-20T09:35:23.910Z,22.70
2023-01-20T09:38:09.557Z,16.90
2023-01-20T09:41:12.175Z,18.20
2023-01-20T09:44:09.964Z,18.80
2023-01-20T09:47:15.144Z,22.60
2023-01-20T09:50:36.714Z,24.80
2023-01-20T09:53:16.518Z,23.90
2023-01-20T09:56:00.156Z,29.20
2023-01-20T09:58:48.501Z,24.10
2023-01-20T10:01:24.636Z,20.60
2023-01-20T10:03:57.120Z,22.40
2023-01-20T10:06:31.449Z,19.00
2023-01-20T10:09:06.768Z,19.00
2023-01-20T10:11:39.853Z,21.70
2023-01-20T10:14:18.607Z,19.00
2023-01-20T10:16:54.425Z,22.40
2023-01-20T10:20:04.019Z,20.60
2023-01-20T10:22:37.859Z,25.70
2023-01-20T10:25:13.050Z,21.50
2023-01-20T10:27:43.302Z,19.10
2023-01-20T10:30:11.629Z,21.90
2023-01-20T10:32:40.906Z,21.90
2023-01-20T10:35:15.801Z,21.60
2023-01-20T10:37:43.156Z,21.50
2023-01-20T10:40:16.790Z,19.10
2023-01-20T10:45:22.347Z,21.50
2023-01-20T10:48:10.134Z,20.00
2023-01-20T10:50:47.010Z,14.60
2023-01-20T10:53:36.193Z,21.30
2023-01-20T10:56:26.367Z,21.70
2023-01-20T10:58:53.185Z,19.90
2023-01-20T11:01:20.237Z,19.90
2023-01-20T11:03:48.136Z,17.40
2023-01-20T11:06:22.861Z,17.90
2023-01-20T11:08:49.819Z,28.60
2023-01-20T11:11:19.695Z,15.90
2023-01-20T11:13:46.640Z,23.60
2023-01-20T11:16:17.740Z,12.00
2023-01-20T11:18:57.753Z,22.30
2023-01-20T11:21:25.315Z,20.00
2023-01-20T11:23:52.943Z,20.70
2023-01-20T11:26:29.602Z,20.30
2023-01-20T11:29:09.795Z,17.40
2023-01-20T11:31:41.019Z,18.90
2023-01-20T11:34:21.925Z,23.70
2023-01-20T11:36:50.028Z,20.00
2023-01-20T11:39:36.907Z,19.30
2023-01-20T11:42:17.102Z,22.80
2023-01-20T11:44:48.185Z,18.20
2023-01-20T11:47:33.985Z,21.30
2023-01-20T11:50:04.003Z,18.10
2023-01-20T11:52:32.082Z,17.30
2023-01-20T11:55:10.096Z,16.70
2023-01-20T11:57:38.252Z,17.10
2023-01-20T12:00:19.959Z,20.00
2023-01-20T12:03:15.168Z,11.60
2023-01-20T12:05:54.859Z,21.10
2023-01-20T12:08:29.737Z,17.90
2023-01-20T12:10:58.379Z,19.30
2023-01-20T12:13:28.113Z,16.50
2023-01-20T12:15:59.408Z,18.10
2023-01-20T12:18:29.386Z,20.20
2023-01-20T12:20:59.391Z,21.00
2023-01-20T12:23:45.704Z,20.10
2023-01-20T12:26:17.204Z,19.20
2023-01-20T12:29:03.485Z,18.10
2023-01-20T12:31:30.615Z,19.30
2023-01-20T12:34:05.345Z,17.80
2023-01-20T12:36:41.232Z,18.60
2023-01-20T12:39:33.285Z,14.70
2023-01-20T12:43:04.234Z,21.60
2023-01-20T12:45:47.190Z,14.80
2023-01-20T12:48:42.596Z,23.60
2023-01-20T12:51:39.237Z,16.00
2023-01-20T12:54:48.347Z,17.90
2023-01-20T12:57:43.787Z,22.80
2023-01-20T13:00:46.184Z,20.20
2023-01-20T13:03:51.216Z,18.10
2023-01-20T13:06:52.463Z,17.70
2023-01-20T13:09:22.359Z,19.20
2023-01-20T13:12:01.348Z,18.00
2023-01-20T13:14:40.827Z,17.20
2023-01-20T13:17:23.048Z,17.60
2023-01-20T13:19:50.110Z,15.50
2023-01-20T13:22:22.273Z,14.10
2023-01-20T13:24:54.023Z,20.90
2023-01-20T13:27:28.102Z,15.60
2023-01-20T13:29:56.925Z,17.60
2023-01-20T13:32:27.761Z,16.80
2023-01-20T13:34:54.651Z,15.10
2023-01-20T13:37:37.859Z,18.80
2023-01-20T13:40:26.111Z,11.70
2023-01-20T13:42:54.054Z,14.30
2023-01-20T13:45:25.737Z,17.20
2023-01-20T13:48:03.098Z,13.20
2023-01-20T13:50:40.278Z,16.00
2023-01-20T13:53:27.970Z,18.50
2023-01-20T13:56:29.250Z,15.30
2023-01-20T13:58:58.264Z,14.10
2023-01-20T14:01:25.815Z,22.20
2023-01-20T14:04:06.715Z,20.00
2023-01-20T14:06:35.816Z,14.10
2023-01-20T14:09:03.126Z,13.30
2023-01-20T14:11:30.437Z,11.30
2023-01-20T14:14:02.025Z,12.10
2023-01-20T14:16:30.168Z,14.70
2023-01-20T14:18:59.602Z,15.10
2023-01-20T14:21:30.548Z,16.00
2023-01-20T14:23:58.099Z,14.70
2023-01-20T14:26:26.912Z,14.20
2023-01-20T14:28:57.919Z,15.10
2023-01-20T14:31:35.203Z,14.10
2023-01-20T14:34:18.954Z,12.50
2023-01-20T14:38:03.486Z,17.90
2023-01-20T14:40:32.022Z,16.40
2023-01-20T14:43:03.748Z,15.80
2023-01-20T14:45:32.501Z,16.50
2023-01-20T14:48:00.802Z,13.30
2023-01-20T14:50:28.794Z,13.50
2023-01-20T14:52:56.461Z,14.50
2023-01-20T14:55:44.082Z,13.10
2023-01-20T14:58:17.386Z,14.00
2023-01-20T15:00:48.586Z,13.90
2023-01-20T15:03:19.715Z,13.10
2023-01-20T15:05:58.438Z,15.70
2023-01-20T15:08:56.887Z,19.50
2023-01-20T15:11:31.457Z,20.40
2023-01-20T15:14:01.624Z,19.00
2023-01-20T15:16:43.224Z,20.90
2023-01-20T15:19:23.058Z,17.60
2023-01-20T15:21:54.188Z,20.20
2023-01-20T15:24:25.233Z,18.60
2023-01-20T15:26:53.047Z,20.30
2023-01-20T15:29:21.885Z,17.40
2023-01-20T15:31:49.426Z,19.70
2023-01-20T15:34:16.284Z,19.30
2023-01-20T15:36:44.235Z,19.20
2023-01-20T15:39:12.296Z,20.20
2023-01-20T15:41:39.190Z,19.50
2023-01-20T15:44:06.121Z,20.50
2023-01-20T15:46:35.661Z,18.70
2023-01-20T15:49:02.652Z,21.40
2023-01-20T15:51:29.596Z,18.80
2023-01-20T15:53:56.692Z,18.10
2023-01-20T15:56:28.492Z,17.60
2023-01-20T15:58:55.788Z,18.10
2023-01-20T16:01:25.194Z,19.20
2023-01-20T16:03:52.933Z,23.90
2023-01-20T16:06:20.382Z,20.90
2023-01-20T16:08:48.476Z,23.50
2023-01-20T16:11:15.945Z,22.90
2023-01-20T16:13:43.163Z,24.90
2023-01-20T16:16:14.762Z,30.10
2023-01-20T16:18:41.568Z,22.30
2023-01-20T16:21:11.044Z,29.10
2023-01-20T16:23:42.239Z,29.90
2023-01-20T16:26:25.159Z,26.90
2023-01-20T16:28:53.295Z,25.80
2023-01-20T16:31:20.841Z,27.30
2023-01-20T16:33:47.977Z,28.60
2023-01-20T16:36:17.184Z,27.70
2023-01-20T16:38:45.634Z,23.40
2023-01-20T16:41:21.071Z,23.60
2023-01-20T16:43:48.651Z,21.50
2023-01-20T16:46:19.351Z,21.50
2023-01-20T16:48:46.179Z,25.60
2023-01-20T16:51:16.720Z,27.10
2023-01-20T16:53:43.511Z,22.70
2023-01-20T16:56:18.029Z,21.70
2023-01-20T16:58:47.248Z,23.20
2023-01-20T17:01:14.323Z,22.80
2023-01-20T17:03:42.185Z,21.50
2023-01-20T17:06:15.006Z,22.70
2023-01-20T17:08:46.428Z,22.10
2023-01-20T17:11:17.639Z,18.80
2023-01-20T17:13:44.558Z,21.50
2023-01-20T17:16:13.617Z,20.80
2023-01-20T17:18:45.239Z,23.00
2023-01-20T17:21:13.933Z,25.50
2023-01-20T17:23:43.744Z,24.60
2023-01-20T17:26:15.020Z,21.40
2023-01-20T17:28:41.941Z,21.20
2023-01-20T17:31:08.709Z,22.70
2023-01-20T17:33:35.596Z,22.60
2023-01-20T17:36:04.009Z,22.90
2023-01-20T17:38:32.191Z,20.40
2023-01-20T17:41:05.479Z,21.40
2023-01-20T17:43:35.813Z,22.10
2023-01-20T17:46:24.261Z,21.20
2023-01-20T17:48:53.671Z,19.90
2023-01-20T17:51:22.011Z,24.20
2023-01-20T17:53:49.267Z,20.50
2023-01-20T17:56:16.939Z,19.30
2023-01-20T17:58:44.803Z,21.40
2023-01-20T18:01:14.799Z,18.20
2023-01-20T18:03:43.230Z,20.90
2023-01-20T18:06:11.585Z,21.90
2023-01-20T18:08:38.559Z,21.20
2023-01-20T18:11:07.080Z,22.00
2023-01-20T18:13:35.491Z,18.50
2023-01-20T18:16:07.225Z,18.10
2023-01-20T18:18:34.149Z,21.30
2023-01-20T18:21:14.889Z,22.30
2023-01-20T18:23:42.336Z,21.90
2023-01-20T18:26:10.337Z,25.80
2023-01-20T18:28:37.411Z,21.60
2023-01-20T18:31:09.975Z,20.30
2023-01-20T18:33:44.825Z,22.50
2023-01-20T18:36:14.816Z,20.50
2023-01-20T18:38:45.294Z,22.90
2023-01-20T18:41:14.636Z,23.40
2023-01-20T18:43:41.765Z,23.30
2023-01-20T18:46:09.477Z,21.50
2023-01-20T18:48:40.827Z,20.60
2023-01-20T18:51:10.367Z,25.30
2023-01-20T18:53:37.706Z,22.30
2023-01-20T18:56:07.108Z,26.00
2023-01-20T18:58:35.187Z,23.80
2023-01-20T19:01:13.518Z,23.20
2023-01-20T19:03:40.876Z,23.10
2023-01-20T19:06:09.744Z,24.20
2023-01-20T19:08:40.403Z,28.20
2023-01-20T19:11:24.728Z,27.40
2023-01-20T19:13:53.476Z,29.40
2023-01-20T19:16:22.135Z,29.50
2023-01-20T19:18:54.167Z,29.60
2023-01-20T19:21:21.797Z,32.10
2023-01-20T19:23:50.443Z,29.20
2023-01-20T19:26:20.847Z,30.50
2023-01-20T19:28:56.183Z,30.20
2023-01-20T19:32:19.360Z,32.80
2023-01-20T19:35:23.066Z,27.70
2023-01-20T19:37:50.502Z,28.40
2023-01-20T19:40:20.929Z,32.10
2023-01-20T19:42:51.059Z,34.70
2023-01-20T19:45:21.581Z,33.40
2023-01-20T19:47:48.670Z,28.30
2023-01-20T19:50:16.492Z,30.40
2023-01-20T19:52:43.778Z,29.40
2023-01-20T19:55:10.770Z,34.20
2023-01-20T19:57:38.262Z,35.90
2023-01-20T20:00:06.840Z,41.00
2023-01-20T20:02:38.825Z,39.20
2023-01-20T20:05:07.006Z,41.20
2023-01-20T20:07:35.195Z,39.60
2023-01-20T20:10:02.212Z,39.70
2023-01-20T20:12:29.236Z,43.30
2023-01-20T20:14:57.217Z,41.60
2023-01-20T20:17:26.007Z,41.70
2023-01-20T20:19:53.174Z,41.20
2023-01-20T20:22:20.498Z,39.40
2023-01-20T20:24:47.465Z,39.70
2023-01-20T20:27:15.113Z,39.50
2023-01-20T20:29:42.361Z,40.30
2023-01-20T20:32:09.926Z,39.90
2023-01-20T20:34:37.478Z,45.60
2023-01-20T20:37:04.649Z,44.40
2023-01-20T20:39:31.417Z,41.40
2023-01-20T20:41:58.311Z,38.70
2023-01-20T20:44:25.040Z,43.50
2023-01-20T20:46:52.017Z,48.30
2023-01-20T20:49:19.555Z,43.90
2023-01-20T20:51:46.532Z,43.10
2023-01-20T20:54:16.211Z,47.60
2023-01-20T20:56:47.124Z,42.70
2023-01-20T20:59:23.016Z,41.30
2023-01-20T21:01:50.030Z,47.40
2023-01-20T21:04:16.986Z,43.00
2023-01-20T21:06:43.948Z,41.10
2023-01-20T21:09:10.719Z,44.80
2023-01-20T21:11:38.593Z,45.40
2023-01-20T21:14:05.726Z,45.50
2023-01-20T21:16:32.568Z,44.30
2023-01-20T21:19:00.922Z,46.00
2023-01-20T21:21:30.713Z,39.70
2023-01-20T21:23:58.656Z,46.50
2023-01-20T21:26:28.957Z,42.60
2023-01-20T21:28:57.338Z,43.90
2023-01-20T21:31:26.811Z,50.90
2023-01-20T21:33:55.057Z,45.90
2023-01-20T21:36:22.180Z,42.10
2023-01-20T21:38:49.588Z,45.70
2023-01-20T21:41:16.949Z,47.60
2023-01-20T21:44:03.390Z,50.10
2023-01-20T21:46:38.981Z,47.20
2023-01-20T21:49:25.664Z,45.00
2023-01-20T21:52:11.365Z,46.40
2023-01-20T21:54:39.978Z,52.90
2023-01-20T21:57:06.916Z,51.20
2023-01-20T21:59:33.863Z,53.80
2023-01-20T22:02:00.713Z,47.10
2023-01-20T22:04:27.584Z,51.00
2023-01-20T22:06:54.384Z,51.40
2023-01-20T22:09:21.172Z,50.60
2023-01-20T22:11:48.289Z,52.30
2023-01-20T22:14:15.252Z,54.00
2023-01-20T22:16:42.135Z,44.70
2023-01-20T22:19:12.649Z,49.50
2023-01-20T22:21:39.424Z,45.80
2023-01-20T22:24:07.004Z,47.90
2023-01-20T22:26:33.784Z,49.30
2023-01-20T22:29:00.576Z,41.90
2023-01-20T22:31:28.958Z,44.00
2023-01-20T22:33:57.586Z,42.60
2023-01-20T22:36:25.361Z,42.40
2023-01-20T22:38:52.664Z,41.20
2023-01-20T22:41:19.735Z,45.30
2023-01-20T22:43:48.189Z,47.50
2023-01-20T22:46:16.202Z,43.50
2023-01-20T22:48:43.226Z,48.80
2023-01-20T22:51:15.104Z,42.90
2023-01-20T22:53:42.338Z,43.60
2023-01-20T22:56:17.363Z,49.30
2023-01-20T22:58:44.333Z,47.10
2023-01-20T23:01:22.511Z,45.70
2023-01-20T23:03:53.725Z,41.70
2023-01-20T23:06:20.711Z,46.20
2023-01-20T23:08:47.486Z,47.40
2023-01-20T23:11:15.096Z,48.80
2023-01-20T23:13:42.144Z,46.90
2023-01-20T23:16:12.849Z,46.70
2023-01-20T23:18:39.708Z,46.30
2023-01-20T23:21:06.698Z,47.50
2023-01-20T23:23:33.664Z,55.90
2023-01-20T23:26:02.482Z,50.30
2023-01-20T23:28:29.548Z,43.40
2023-01-20T23:31:03.904Z,45.10
2023-01-20T23:33:31.014Z,53.60
2023-01-20T23:36:08.200Z,46.90
2023-01-20T23:38:35.053Z,54.90
2023-01-20T23:41:02.506Z,55.10
2023-01-20T23:43:32.526Z,47.90
2023-01-20T23:46:00.488Z,48.40
2023-01-20T23:48:27.768Z,46.80
2023-01-20T23:50:56.270Z,53.20
2023-01-20T23:53:23.288Z,51.00
2023-01-20T23:55:50.115Z,54.40
2023-01-20T23:58:16.950Z,51.30
